createdAt,value
2022-10-17T00:00:30.073Z,7.57
2022-10-17T00:02:56.761Z,7.20
2022-10-17T00:05:23.713Z,8.33
2022-10-17T00:07:50.035Z,8.10
2022-10-17T00:10:17.314Z,9.60
2022-10-17T00:12:43.652Z,7.13
2022-10-17T00:15:14.270Z,9.83
2022-10-17T00:17:41.908Z,11.50
2022-10-17T00:20:08.756Z,7.83
2022-10-17T00:25:02.445Z,11.20
2022-10-17T00:27:29.299Z,11.70
2022-10-17T00:29:55.949Z,10.80
2022-10-17T00:32:22.387Z,6.23
2022-10-17T00:34:48.749Z,12.20
2022-10-17T00:37:15.113Z,8.43
2022-10-17T00:39:41.488Z,9.70
2022-10-17T00:42:12.561Z,8.37
2022-10-17T00:44:42.145Z,9.83
2022-10-17T00:47:13.929Z,8.07
2022-10-17T00:49:40.783Z,9.60
2022-10-17T00:52:19.736Z,10.00
2022-10-17T00:54:51.675Z,9.37
2022-10-17T00:57:18.177Z,9.90
2022-10-17T00:59:51.429Z,9.33
2022-10-17T01:02:20.931Z,7.17
2022-10-17T01:04:50.821Z,7.40
2022-10-17T01:07:17.277Z,6.83
2022-10-17T01:09:46.149Z,8.00
2022-10-17T01:12:25.678Z,8.97
2022-10-17T01:15:06.492Z,10.17
2022-10-17T01:17:59.104Z,9.30
2022-10-17T01:20:43.834Z,7.63
2022-10-17T01:23:46.045Z,7.13
2022-10-17T01:26:48.145Z,13.97
2022-10-17T01:29:47.083Z,12.40
2022-10-17T01:32:22.749Z,9.17
2022-10-17T01:34:57.882Z,6.37
2022-10-17T01:37:24.237Z,9.37
2022-10-17T01:40:03.078Z,7.80
2022-10-17T01:42:48.281Z,8.17
2022-10-17T01:45:28.340Z,8.50
2022-10-17T01:47:58.153Z,8.90
2022-10-17T01:50:32.340Z,8.10
2022-10-17T01:53:04.950Z,9.10
2022-10-17T01:55:41.841Z,5.33
2022-10-17T01:58:28.784Z,11.03
2022-10-17T02:00:58.456Z,6.07
2022-10-17T02:03:27.823Z,8.87
2022-10-17T02:05:54.649Z,8.60
2022-10-17T02:08:29.669Z,12.00
2022-10-17T02:11:08.918Z,6.60
2022-10-17T02:14:04.706Z,8.43
2022-10-17T02:16:53.852Z,5.27
2022-10-17T02:19:43.693Z,7.97
2022-10-17T02:22:30.528Z,8.57
2022-10-17T02:25:23.741Z,13.67
2022-10-17T02:28:21.045Z,16.27
2022-10-17T02:30:54.832Z,10.57
2022-10-17T02:33:27.067Z,7.33
2022-10-17T02:35:57.749Z,5.53
2022-10-17T02:38:26.929Z,6.37
2022-10-17T02:40:53.754Z,6.83
2022-10-17T02:43:21.753Z,7.00
2022-10-17T02:45:48.869Z,7.23
2022-10-17T02:48:31.097Z,7.77
2022-10-17T02:51:35.190Z,5.20
2022-10-17T02:54:12.802Z,4.97
2022-10-17T02:56:50.220Z,8.00
2022-10-17T02:59:20.178Z,6.17
2022-10-17T03:01:46.755Z,4.50
2022-10-17T03:04:14.618Z,5.33
2022-10-17T03:06:41.799Z,4.53
2022-10-17T03:09:08.768Z,3.63
2022-10-17T03:11:35.096Z,3.37
2022-10-17T03:14:01.565Z,6.80
2022-10-17T03:16:27.915Z,7.73
2022-10-17T03:18:54.339Z,3.77
2022-10-17T03:21:20.777Z,5.60
2022-10-17T03:23:47.442Z,9.73
2022-10-17T03:26:13.841Z,4.03
2022-10-17T03:28:40.340Z,4.10
2022-10-17T03:31:13.803Z,4.23
2022-10-17T03:33:40.205Z,4.23
2022-10-17T03:36:08.754Z,4.10
2022-10-17T03:38:35.590Z,5.30
2022-10-17T03:41:03.170Z,4.30
2022-10-17T03:43:30.464Z,4.43
2022-10-17T03:45:58.604Z,8.40
2022-10-17T03:48:25.810Z,5.23
2022-10-17T03:50:52.468Z,5.67
2022-10-17T03:53:19.129Z,4.87
2022-10-17T03:55:45.450Z,6.17
2022-10-17T03:58:11.842Z,4.27
2022-10-17T04:00:38.273Z,7.57
2022-10-17T04:03:04.920Z,5.20
2022-10-17T04:05:31.268Z,4.60
2022-10-17T04:07:59.793Z,4.23
2022-10-17T04:10:29.629Z,5.23
2022-10-17T04:12:58.885Z,8.93
2022-10-17T04:15:25.236Z,5.53
2022-10-17T04:17:51.733Z,4.70
2022-10-17T04:20:18.145Z,4.60
2022-10-17T04:22:44.607Z,5.73
2022-10-17T04:25:10.938Z,6.80
2022-10-17T04:27:37.308Z,7.03
2022-10-17T04:30:03.896Z,5.30
2022-10-17T04:32:30.693Z,5.07
2022-10-17T04:34:57.252Z,7.50
2022-10-17T04:37:23.727Z,4.80
2022-10-17T04:39:50.054Z,5.10
2022-10-17T04:42:16.441Z,4.30
2022-10-17T04:44:42.849Z,8.83
2022-10-17T04:47:09.217Z,4.50
2022-10-17T04:49:35.598Z,7.20
2022-10-17T04:52:01.989Z,5.03
2022-10-17T04:54:28.318Z,4.53
2022-10-17T04:56:54.644Z,6.53
2022-10-17T04:59:21.033Z,4.47
2022-10-17T05:01:49.308Z,5.83
2022-10-17T05:04:15.663Z,9.00
2022-10-17T05:06:42.097Z,6.60
2022-10-17T05:09:08.494Z,6.53
2022-10-17T05:11:34.825Z,4.33
2022-10-17T05:14:02.318Z,5.30
2022-10-17T05:16:30.157Z,4.37
2022-10-17T05:18:58.120Z,8.57
2022-10-17T05:21:26.230Z,7.00
2022-10-17T05:23:52.696Z,4.87
2022-10-17T05:26:19.921Z,6.73
2022-10-17T05:28:47.039Z,5.77
2022-10-17T05:31:13.859Z,5.60
2022-10-17T05:33:40.328Z,5.50
2022-10-17T05:36:07.828Z,5.70
2022-10-17T05:38:35.212Z,5.70
2022-10-17T05:41:04.657Z,5.60
2022-10-17T05:43:32.899Z,5.20
2022-10-17T05:45:59.254Z,5.83
2022-10-17T05:48:25.704Z,8.43
2022-10-17T05:50:58.997Z,5.67
2022-10-17T05:53:25.433Z,5.50
2022-10-17T05:55:56.336Z,6.23
2022-10-17T05:58:45.508Z,4.80
2022-10-17T06:01:12.782Z,5.60
2022-10-17T06:03:39.521Z,5.87
2022-10-17T06:06:08.107Z,4.90
2022-10-17T06:08:34.853Z,5.30
2022-10-17T06:11:04.904Z,5.00
2022-10-17T06:13:34.357Z,6.70
2022-10-17T06:16:00.894Z,8.40
2022-10-17T06:18:27.304Z,7.73
2022-10-17T06:20:53.705Z,4.90
2022-10-17T06:23:20.110Z,8.00
2022-10-17T06:25:46.451Z,4.30
2022-10-17T06:28:12.850Z,4.70
2022-10-17T06:30:40.754Z,5.70
2022-10-17T06:33:07.337Z,4.87
2022-10-17T06:35:33.723Z,5.97
2022-10-17T06:38:00.096Z,6.83
2022-10-17T06:40:26.494Z,6.67
2022-10-17T06:42:52.885Z,5.30
2022-10-17T06:45:19.209Z,5.37
2022-10-17T06:47:45.624Z,5.07
2022-10-17T06:50:11.992Z,8.10
2022-10-17T06:52:38.389Z,5.30
2022-10-17T06:55:05.104Z,6.83
2022-10-17T06:57:32.202Z,5.60
2022-10-17T06:59:58.808Z,5.40
2022-10-17T07:02:25.204Z,5.47
2022-10-17T07:04:51.568Z,5.87
2022-10-17T07:07:17.951Z,9.43
2022-10-17T07:09:44.391Z,6.03
2022-10-17T07:12:12.722Z,5.07
2022-10-17T07:14:39.053Z,6.13
2022-10-17T07:17:05.465Z,4.73
2022-10-17T07:19:31.827Z,5.17
2022-10-17T07:21:58.257Z,8.03
2022-10-17T07:24:24.585Z,12.83
2022-10-17T07:26:50.985Z,8.60
2022-10-17T07:29:17.333Z,5.33
2022-10-17T07:31:45.573Z,8.33
2022-10-17T07:34:11.924Z,4.87
2022-10-17T07:36:38.346Z,8.07
2022-10-17T07:39:04.952Z,13.90
2022-10-17T07:41:31.325Z,13.70
2022-10-17T07:43:58.029Z,8.07
2022-10-17T07:46:24.366Z,8.83
2022-10-17T07:48:51.128Z,5.87
2022-10-17T07:51:18.375Z,4.77
2022-10-17T07:53:48.715Z,5.43
2022-10-17T07:56:15.731Z,8.90
2022-10-17T07:58:42.134Z,7.57
2022-10-17T08:01:15.413Z,6.63
2022-10-17T08:03:44.297Z,7.47
2022-10-17T08:06:10.679Z,7.60
2022-10-17T08:08:37.155Z,5.47
2022-10-17T08:11:09.533Z,5.17
2022-10-17T08:13:37.045Z,5.70
2022-10-17T08:16:07.871Z,5.90
2022-10-17T08:18:35.491Z,5.67
2022-10-17T08:21:06.229Z,4.97
2022-10-17T08:23:32.762Z,5.50
2022-10-17T08:26:00.904Z,5.07
2022-10-17T08:28:27.710Z,7.30
2022-10-17T08:30:54.138Z,5.80
2022-10-17T08:33:20.887Z,4.50
2022-10-17T08:35:47.217Z,9.37
2022-10-17T08:38:14.135Z,5.00
2022-10-17T08:40:42.757Z,8.03
2022-10-17T08:43:24.613Z,4.37
2022-10-17T08:46:06.489Z,4.33
2022-10-17T08:48:38.345Z,5.03
2022-10-17T08:51:13.915Z,4.97
2022-10-17T08:53:48.119Z,7.07
2022-10-17T08:56:37.005Z,5.23
2022-10-17T08:59:23.726Z,5.57
2022-10-17T09:02:14.857Z,5.63
2022-10-17T09:04:49.865Z,7.80
2022-10-17T09:07:27.980Z,7.00
2022-10-17T09:10:11.509Z,6.50
2022-10-17T09:12:54.683Z,4.50
2022-10-17T09:15:40.311Z,10.60
2022-10-17T09:18:19.827Z,4.53
2022-10-17T09:21:06.493Z,8.23
2022-10-17T09:24:03.775Z,5.43
2022-10-17T09:26:38.795Z,7.07
2022-10-17T09:29:15.297Z,6.80
2022-10-17T09:31:49.759Z,5.10
2022-10-17T09:34:16.269Z,3.90
2022-10-17T09:36:43.944Z,6.33
2022-10-17T09:39:24.746Z,12.10
2022-10-17T09:41:54.093Z,10.63
2022-10-17T09:44:29.108Z,4.53
2022-10-17T09:47:22.604Z,6.40
2022-10-17T09:49:50.001Z,8.80
2022-10-17T09:52:27.265Z,5.73
2022-10-17T09:55:06.475Z,5.50
2022-10-17T09:57:55.646Z,5.70
2022-10-17T10:00:44.406Z,4.40
2022-10-17T10:03:27.373Z,5.07
2022-10-17T10:06:05.667Z,5.60
2022-10-17T10:08:53.052Z,4.43
2022-10-17T10:11:24.758Z,5.10
2022-10-17T10:13:51.860Z,4.50
2022-10-17T10:16:32.159Z,7.60
2022-10-17T10:18:58.723Z,11.63
2022-10-17T10:21:27.735Z,5.40
2022-10-17T10:24:08.376Z,3.83
2022-10-17T10:26:48.791Z,8.13
2022-10-17T10:29:34.539Z,5.10
2022-10-17T10:32:11.016Z,3.70
2022-10-17T10:34:43.252Z,5.10
2022-10-17T10:37:21.765Z,7.67
2022-10-17T10:39:54.827Z,6.40
2022-10-17T10:42:41.198Z,6.80
2022-10-17T10:45:29.256Z,10.07
2022-10-17T10:48:23.517Z,5.40
2022-10-17T10:50:53.036Z,5.00
2022-10-17T10:53:22.063Z,4.40
2022-10-17T10:56:14.475Z,4.13
2022-10-17T10:58:53.082Z,4.40
2022-10-17T11:01:29.754Z,6.00
2022-10-17T11:04:16.111Z,4.80
2022-10-17T11:06:45.332Z,8.80
2022-10-17T11:09:36.562Z,8.10
2022-10-17T11:12:28.023Z,7.07
2022-10-17T11:15:16.962Z,4.53
2022-10-17T11:18:04.931Z,7.13
2022-10-17T11:20:38.601Z,9.30
2022-10-17T11:23:19.818Z,6.10
2022-10-17T11:25:49.605Z,4.00
2022-10-17T11:28:18.830Z,5.50
2022-10-17T11:30:50.185Z,5.13
2022-10-17T11:33:24.373Z,4.27
2022-10-17T11:35:54.404Z,6.37
2022-10-17T11:38:51.918Z,21.50
2022-10-17T11:41:32.227Z,5.00
2022-10-17T11:44:28.077Z,4.47
2022-10-17T11:47:02.359Z,5.93
2022-10-17T11:49:38.250Z,7.30
2022-10-17T11:52:44.363Z,9.60
2022-10-17T11:55:21.924Z,5.23
2022-10-17T11:57:56.260Z,6.40
2022-10-17T12:00:54.294Z,9.93
2022-10-17T12:03:45.498Z,8.60
2022-10-17T12:06:15.292Z,8.57
2022-10-17T12:08:51.890Z,5.60
2022-10-17T12:11:42.685Z,5.93
2022-10-17T12:14:34.187Z,7.53
2022-10-17T12:17:02.502Z,8.30
2022-10-17T12:19:34.157Z,7.10
2022-10-17T12:22:27.063Z,9.13
2022-10-17T12:25:01.953Z,12.47
2022-10-17T12:27:36.928Z,12.67
2022-10-17T12:30:12.544Z,7.37
2022-10-17T12:33:05.702Z,7.20
2022-10-17T12:35:35.561Z,7.70
2022-10-17T12:38:15.059Z,7.60
2022-10-17T12:40:50.564Z,6.37
2022-10-17T12:43:16.968Z,11.13
2022-10-17T12:45:51.614Z,8.33
2022-10-17T12:48:36.349Z,7.40
2022-10-17T12:51:37.386Z,7.07
2022-10-17T12:54:11.883Z,6.83
2022-10-17T12:56:42.381Z,6.83
2022-10-17T12:59:15.795Z,9.10
2022-10-17T13:01:46.591Z,8.03
2022-10-17T13:04:13.301Z,11.60
2022-10-17T13:06:48.078Z,8.03
2022-10-17T13:09:26.523Z,9.00
2022-10-17T13:11:54.348Z,21.17
2022-10-17T13:14:23.195Z,15.57
2022-10-17T13:16:56.290Z,12.23
2022-10-17T13:19:26.341Z,10.87
2022-10-17T13:22:06.500Z,13.57
2022-10-17T13:24:39.003Z,14.90
2022-10-17T13:27:21.053Z,11.00
2022-10-17T13:29:47.571Z,11.33
2022-10-17T13:32:13.945Z,10.97
2022-10-17T13:34:40.345Z,14.80
2022-10-17T13:37:12.367Z,11.57
2022-10-17T13:39:55.402Z,9.80
2022-10-17T13:42:26.760Z,10.63
2022-10-17T13:44:53.730Z,12.10
2022-10-17T13:47:29.775Z,17.93
2022-10-17T13:49:57.754Z,17.63
2022-10-17T13:52:28.315Z,11.83
2022-10-17T13:54:56.293Z,13.63
2022-10-17T13:57:31.160Z,12.70
2022-10-17T14:00:09.866Z,10.40
2022-10-17T14:02:38.265Z,14.03
2022-10-17T14:05:17.240Z,13.07
2022-10-17T14:10:38.700Z,10.20
2022-10-17T14:13:08.181Z,10.23
2022-10-17T14:15:36.692Z,10.63
2022-10-17T14:18:08.307Z,11.00
2022-10-17T14:23:35.441Z,10.57
2022-10-17T14:26:06.686Z,12.03
2022-10-17T14:28:34.192Z,11.43
2022-10-17T14:31:21.397Z,10.50
2022-10-17T14:33:51.133Z,20.03
2022-10-17T14:36:19.261Z,14.90
2022-10-17T14:38:51.987Z,11.43
2022-10-17T14:41:47.297Z,11.77
2022-10-17T14:44:26.916Z,11.03
2022-10-17T14:46:57.771Z,13.13
2022-10-17T14:49:39.137Z,12.87
2022-10-17T14:52:18.763Z,13.93
2022-10-17T14:54:47.728Z,11.80
2022-10-17T14:57:19.607Z,12.37
2022-10-17T14:59:54.803Z,12.23
2022-10-17T15:02:23.581Z,12.43
2022-10-17T15:04:50.031Z,13.37
2022-10-17T15:07:17.715Z,13.00
2022-10-17T15:09:45.313Z,13.23
2022-10-17T15:12:17.757Z,13.50
2022-10-17T15:14:44.997Z,14.93
2022-10-17T15:17:18.503Z,15.17
2022-10-17T15:19:44.852Z,14.30
2022-10-17T15:22:11.377Z,17.13
2022-10-17T15:24:37.782Z,16.47
2022-10-17T15:27:14.047Z,16.63
2022-10-17T15:29:40.396Z,15.97
2022-10-17T15:32:06.806Z,16.30
2022-10-17T15:34:33.133Z,19.37
2022-10-17T15:37:00.548Z,17.47
2022-10-17T15:39:27.013Z,17.90
2022-10-17T15:41:53.458Z,18.30
2022-10-17T15:44:19.792Z,16.00
2022-10-17T15:46:46.693Z,22.83
2022-10-17T15:49:17.150Z,16.97
2022-10-17T15:51:43.529Z,16.53
2022-10-17T15:54:10.003Z,18.60
2022-10-17T15:56:52.947Z,16.17
2022-10-17T15:59:27.911Z,16.87
2022-10-17T16:01:54.293Z,14.43
2022-10-17T16:04:20.693Z,17.20
2022-10-17T16:06:47.164Z,15.60
2022-10-17T16:09:13.561Z,13.90
2022-10-17T16:11:42.465Z,13.83
2022-10-17T16:14:14.473Z,14.10
2022-10-17T16:16:41.163Z,14.13
2022-10-17T16:19:07.987Z,13.80
2022-10-17T16:21:37.056Z,14.77
2022-10-17T16:24:03.950Z,13.97
2022-10-17T16:26:30.853Z,14.60
2022-10-17T16:28:58.087Z,14.07
2022-10-17T16:31:31.171Z,16.30
2022-10-17T16:33:58.896Z,14.73
2022-10-17T16:36:25.361Z,13.80
2022-10-17T16:38:54.027Z,15.30
2022-10-17T16:41:26.382Z,15.30
2022-10-17T16:43:55.499Z,16.17
2022-10-17T16:46:23.712Z,13.63
2022-10-17T16:48:50.317Z,15.30
2022-10-17T16:51:18.792Z,13.47
2022-10-17T16:53:46.669Z,17.00
2022-10-17T16:56:19.087Z,13.20
2022-10-17T16:58:45.949Z,14.57
2022-10-17T17:01:15.181Z,13.93
2022-10-17T17:03:43.280Z,14.47
2022-10-17T17:06:13.759Z,20.50
2022-10-17T17:08:40.233Z,25.03
2022-10-17T17:11:07.722Z,16.87
2022-10-17T17:13:34.352Z,13.10
2022-10-17T17:16:10.199Z,12.30
2022-10-17T17:18:37.289Z,15.77
2022-10-17T17:21:06.289Z,12.57
2022-10-17T17:23:34.939Z,14.07
2022-10-17T17:26:07.283Z,14.33
2022-10-17T17:28:34.890Z,13.80
2022-10-17T17:31:01.937Z,13.40
2022-10-17T17:33:29.965Z,12.47
2022-10-17T17:35:58.209Z,14.07
2022-10-17T17:38:24.679Z,13.17
2022-10-17T17:40:51.367Z,14.33
2022-10-17T17:43:18.826Z,13.97
2022-10-17T17:45:45.690Z,15.73
2022-10-17T17:48:12.625Z,16.50
2022-10-17T17:50:40.549Z,17.37
2022-10-17T17:53:08.529Z,17.60
2022-10-17T17:55:34.906Z,17.07
2022-10-17T17:58:01.491Z,16.23
2022-10-17T18:00:28.880Z,16.63
2022-10-17T18:02:56.422Z,21.73
2022-10-17T18:05:23.010Z,23.60
2022-10-17T18:07:49.438Z,20.27
2022-10-17T18:10:16.070Z,19.80
2022-10-17T18:12:42.789Z,20.60
2022-10-17T18:15:09.563Z,21.83
2022-10-17T18:17:36.125Z,62.27
2022-10-17T18:20:03.486Z,20.50
2022-10-17T18:22:30.189Z,19.83
2022-10-17T18:24:56.863Z,20.37
2022-10-17T18:27:23.270Z,21.30
2022-10-17T18:29:51.073Z,22.50
2022-10-17T18:32:17.595Z,23.10
2022-10-17T18:34:43.934Z,22.63
2022-10-17T18:37:10.464Z,22.63
2022-10-17T18:39:37.157Z,22.37
2022-10-17T18:42:05.771Z,15.87
2022-10-17T18:44:40.945Z,16.67
2022-10-17T18:47:07.411Z,11.93
2022-10-17T18:49:33.923Z,7.87
2022-10-17T18:52:00.355Z,6.40
2022-10-17T18:54:26.846Z,5.40
2022-10-17T18:56:54.462Z,4.43
2022-10-17T18:59:21.332Z,3.50
2022-10-17T19:01:48.075Z,4.80
2022-10-17T19:04:14.973Z,5.53
2022-10-17T19:06:41.989Z,6.23
2022-10-17T19:09:11.061Z,5.47
2022-10-17T19:11:38.409Z,5.93
2022-10-17T19:14:12.576Z,4.73
2022-10-17T19:16:41.919Z,6.87
2022-10-17T19:19:19.954Z,9.33
2022-10-17T19:21:46.968Z,4.50
2022-10-17T19:24:16.387Z,6.73
2022-10-17T19:26:44.093Z,5.30
2022-10-17T19:29:13.936Z,7.80
2022-10-17T19:31:40.683Z,7.33
2022-10-17T19:34:07.078Z,4.90
2022-10-17T19:39:26.552Z,4.17
2022-10-17T19:41:52.970Z,7.93
2022-10-17T19:44:19.721Z,8.30
2022-10-17T19:46:46.919Z,5.23
2022-10-17T19:49:13.660Z,4.67
2022-10-17T19:51:40.095Z,8.53
2022-10-17T19:54:07.123Z,8.10
2022-10-17T19:56:37.669Z,4.50
2022-10-17T19:59:07.500Z,4.27
2022-10-17T20:01:36.244Z,4.37
2022-10-17T20:04:02.800Z,4.30
2022-10-17T20:06:29.466Z,4.90
2022-10-17T20:08:56.128Z,4.60
2022-10-17T20:11:25.021Z,3.93
2022-10-17T20:13:52.269Z,3.70
2022-10-17T20:16:24.321Z,5.37
2022-10-17T20:18:52.504Z,7.40
2022-10-17T20:21:22.997Z,4.43
2022-10-17T20:23:50.561Z,5.17
2022-10-17T20:26:33.242Z,4.97
2022-10-17T20:29:08.334Z,5.87
2022-10-17T20:31:35.031Z,7.03
2022-10-17T20:34:01.547Z,5.90
2022-10-17T20:36:27.902Z,4.83
2022-10-17T20:38:58.408Z,5.20
2022-10-17T20:41:26.535Z,5.20
2022-10-17T20:43:55.296Z,5.33
2022-10-17T20:46:35.970Z,4.87
2022-10-17T20:49:05.577Z,5.27
2022-10-17T20:51:32.487Z,5.47
2022-10-17T20:53:59.333Z,4.43
2022-10-17T20:56:28.427Z,4.43
2022-10-17T20:58:58.658Z,4.03
2022-10-17T21:01:26.295Z,3.70
2022-10-17T21:03:53.507Z,4.10
2022-10-17T21:06:20.495Z,4.43
2022-10-17T21:08:48.277Z,5.97
2022-10-17T21:11:19.962Z,3.40
2022-10-17T21:13:47.868Z,3.50
2022-10-17T21:16:16.474Z,3.73
2022-10-17T21:18:43.606Z,8.10
2022-10-17T21:21:14.634Z,3.73
2022-10-17T21:23:43.313Z,4.77
2022-10-17T21:26:12.394Z,4.27
2022-10-17T21:28:40.287Z,5.03
2022-10-17T21:31:09.005Z,5.10
2022-10-17T21:33:35.436Z,7.90
2022-10-17T21:36:01.798Z,12.00
2022-10-17T21:38:28.159Z,5.23
2022-10-17T21:40:56.123Z,7.07
2022-10-17T21:43:22.671Z,6.20
2022-10-17T21:45:49.132Z,6.17
2022-10-17T21:48:15.486Z,8.93
2022-10-17T21:50:42.098Z,6.30
2022-10-17T21:53:08.457Z,6.70
2022-10-17T21:55:38.056Z,10.13
2022-10-17T21:58:04.828Z,6.73
2022-10-17T22:00:31.280Z,10.60
2022-10-17T22:02:57.673Z,8.50
2022-10-17T22:05:24.114Z,10.90
2022-10-17T22:07:50.583Z,10.00
2022-10-17T22:10:17.058Z,9.97
2022-10-17T22:12:43.389Z,9.93
2022-10-17T22:15:09.848Z,9.73
2022-10-17T22:17:36.261Z,13.30
2022-10-17T22:20:02.703Z,10.63
2022-10-17T22:22:30.428Z,12.50
2022-10-17T22:24:56.865Z,11.80
2022-10-17T22:27:23.313Z,9.90
2022-10-17T22:29:49.707Z,12.17
2022-10-17T22:32:20.044Z,13.70
2022-10-17T22:34:49.229Z,10.93
2022-10-17T22:37:15.732Z,11.43
2022-10-17T22:39:42.242Z,11.13
2022-10-17T22:42:08.618Z,9.87
2022-10-17T22:44:35.082Z,12.67
2022-10-17T22:47:01.460Z,12.23
2022-10-17T22:49:27.840Z,17.00
2022-10-17T22:51:54.250Z,10.40
2022-10-17T22:54:20.682Z,15.13
2022-10-17T22:56:47.079Z,9.63
2022-10-17T22:59:13.467Z,11.47
2022-10-17T23:01:39.889Z,16.83
2022-10-17T23:04:06.306Z,19.77
2022-10-17T23:06:32.705Z,13.73
2022-10-17T23:08:59.327Z,10.80
2022-10-17T23:11:25.673Z,14.70
2022-10-17T23:13:52.151Z,10.83
2022-10-17T23:16:18.552Z,13.07
2022-10-17T23:18:45.150Z,17.60
2022-10-17T23:21:11.821Z,13.73
2022-10-17T23:23:38.522Z,15.70
2022-10-17T23:26:13.974Z,15.53
2022-10-17T23:28:42.073Z,16.60
2022-10-17T23:31:17.580Z,16.40
2022-10-17T23:33:45.778Z,12.87
2022-10-17T23:36:14.022Z,14.57
2022-10-17T23:38:41.784Z,16.07
2022-10-17T23:41:08.905Z,17.70
2022-10-17T23:43:35.337Z,19.20
2022-10-17T23:46:02.391Z,19.67
2022-10-17T23:48:29.616Z,16.80
2022-10-17T23:50:56.426Z,17.40
2022-10-17T23:53:24.147Z,17.70
2022-10-17T23:55:51.220Z,14.30
2022-10-17T23:58:17.805Z,14.73
